Time;durP1;ratioP1;P1;durP2;ratioP2;P2;SDS_P1;SDS_P2;PMS_P1;PMS_P2;Temp;Humidity;BMP_temperature;BMP_pressure;BME280_temperature;BME280_humidity;BME280_pressure;Samples;Min_cycle;Max_cycle;Signal;HPM_P1;HPM_P2
2023/01/04 00:00:51;;;;;;;38.47;4.85;;;;;;;1.06;100.00;95106.56;4986576;28;20046;-64
2023/01/04 00:03:18;;;;;;;20.60;4.10;;;;;;;1.08;100.00;95109.72;4988480;28;20042;-64
2023/01/04 00:05:44;;;;;;;13.45;3.47;;;;;;;1.02;100.00;95111.03;4987146;28;20061;-64
2023/01/04 00:08:11;;;;;;;49.97;3.95;;;;;;;0.93;100.00;95104.88;5007547;28;20088;-65
2023/01/04 00:10:38;;;;;;;26.80;3.60;;;;;;;0.76;100.00;95095.72;5009774;28;20058;-65
2023/01/04 00:13:04;;;;;;;50.47;3.97;;;;;;;0.67;100.00;95102.28;5009362;28;20054;-65
2023/01/04 00:15:31;;;;;;;25.43;3.77;;;;;;;0.69;100.00;95103.53;5009814;28;20045;-64
2023/01/04 00:17:57;;;;;;;22.02;4.22;;;;;;;0.60;100.00;95105.47;5009662;28;20388;-64
2023/01/04 00:20:24;;;;;;;44.05;3.50;;;;;;;0.54;100.00;95102.16;5009466;28;20041;-66
2023/01/04 00:22:51;;;;;;;23.58;3.60;;;;;;;0.52;100.00;95100.88;5009456;28;20372;-65
2023/01/04 00:25:17;;;;;;;12.68;3.92;;;;;;;0.54;100.00;95096.75;5009243;28;20103;-65
2023/01/04 00:27:44;;;;;;;7.53;3.37;;;;;;;0.53;100.00;95103.25;5008029;28;20475;-64
2023/01/04 00:30:11;;;;;;;10.48;3.50;;;;;;;0.61;100.00;95101.66;5009366;28;20434;-64
2023/01/04 00:32:38;;;;;;;8.32;3.90;;;;;;;0.69;100.00;95098.13;5003473;28;20043;-64
2023/01/04 00:35:05;;;;;;;11.30;4.30;;;;;;;0.79;100.00;95094.28;4989680;28;20052;-64
2023/01/04 00:37:32;;;;;;;11.23;4.80;;;;;;;0.85;100.00;95100.31;4988768;28;20395;-64
2023/01/04 00:39:58;;;;;;;11.07;4.72;;;;;;;0.95;100.00;95103.44;5009244;28;20487;-64
2023/01/04 00:42:25;;;;;;;11.68;4.93;;;;;;;1.03;100.00;95106.41;5009562;28;20069;-64
2023/01/04 00:44:52;;;;;;;29.42;6.43;;;;;;;0.79;100.00;95097.78;5008314;28;20050;-64
2023/01/04 00:47:18;;;;;;;65.53;5.60;;;;;;;0.61;100.00;95090.06;5011024;28;20096;-64
2023/01/04 00:49:45;;;;;;;44.05;5.90;;;;;;;0.68;100.00;95093.03;5013500;28;20119;-64
2023/01/04 00:52:11;;;;;;;19.92;4.95;;;;;;;0.97;100.00;95100.41;5023230;28;20132;-64
2023/01/04 00:54:38;;;;;;;14.50;4.78;;;;;;;1.25;100.00;95075.59;4993562;28;20065;-64
2023/01/04 00:57:06;;;;;;;13.27;5.13;;;;;;;1.26;100.00;95077.19;4993282;28;20484;-64
2023/01/04 00:59:32;;;;;;;11.23;4.38;;;;;;;1.34;100.00;95081.75;4986658;28;20427;-64
2023/01/04 01:01:59;;;;;;;11.85;5.32;;;;;;;1.56;100.00;95073.31;5011758;28;20443;-64
2023/01/04 01:04:26;;;;;;;12.13;4.72;;;;;;;1.60;100.00;95071.53;5012700;28;20103;-64
2023/01/04 01:06:53;;;;;;;11.68;4.68;;;;;;;1.68;100.00;95077.22;5012413;28;20045;-64
2023/01/04 01:09:23;;;;;;;12.90;4.38;;;;;;;1.67;100.00;95075.63;5012609;28;20049;-64
2023/01/04 01:11:51;;;;;;;14.82;4.38;;;;;;;1.76;100.00;95073.66;5013108;28;20038;-64
2023/01/04 01:14:21;;;;;;;14.30;4.72;;;;;;;1.92;100.00;95071.94;5011579;28;21614;-64
2023/01/04 01:16:48;;;;;;;13.60;4.57;;;;;;;1.96;100.00;95059.31;5013008;28;20042;-64
2023/01/04 01:19:22;;;;;;;15.45;4.40;;;;;;;1.94;100.00;95074.31;5011598;28;20164;-64
2023/01/04 01:21:48;;;;;;;11.05;4.05;;;;;;;2.11;100.00;95076.06;5012779;28;20046;-64
2023/01/04 01:24:17;;;;;;;14.18;4.93;;;;;;;2.16;100.00;95071.25;4999703;28;20780;-64
2023/01/04 01:26:44;;;;;;;11.55;4.18;;;;;;;2.26;100.00;95077.38;4995378;28;20050;-65
2023/01/04 01:29:11;;;;;;;41.73;18.20;;;;;;;2.26;100.00;95080.09;5011948;28;20131;-65
2023/01/04 01:31:39;;;;;;;25.55;9.55;;;;;;;2.28;100.00;95069.72;4993298;28;20062;-64
2023/01/04 01:34:06;;;;;;;13.73;5.07;;;;;;;2.11;100.00;95070.66;4984648;28;20050;-64
2023/01/04 01:36:32;;;;;;;11.02;4.28;;;;;;;2.06;100.00;95070.88;4988896;28;20055;-64
2023/01/04 01:38:59;;;;;;;12.98;5.20;;;;;;;1.93;100.00;95070.81;5000829;28;20510;-64
2023/01/04 01:41:29;;;;;;;13.87;5.30;;;;;;;1.85;100.00;95068.19;5011988;28;20050;-64
2023/01/04 01:44:01;;;;;;;15.32;4.80;;;;;;;1.80;100.00;95061.06;5011864;28;20050;-64
2023/01/04 01:46:28;;;;;;;14.38;5.40;;;;;;;1.80;100.00;95055.66;5012061;28;20479;-64
2023/01/04 01:49:00;;;;;;;14.93;5.72;;;;;;;1.87;100.00;95064.03;5011983;28;20391;-64
2023/01/04 01:51:28;;;;;;;15.50;6.32;;;;;;;1.89;100.00;95061.78;4998705;28;20069;-64
2023/01/04 01:54:01;;;;;;;14.33;5.37;;;;;;;2.04;100.00;95073.13;4992136;28;20052;-64
2023/01/04 01:56:32;;;;;;;11.70;4.82;;;;;;;2.06;100.00;95073.59;4989155;28;20053;-64
2023/01/04 01:59:00;;;;;;;15.82;5.43;;;;;;;2.19;100.00;95077.91;4991329;28;20484;-64
2023/01/04 02:01:27;;;;;;;14.82;6.18;;;;;;;2.15;100.00;95066.16;4992012;28;20428;-64
2023/01/04 02:03:55;;;;;;;16.63;6.45;;;;;;;2.12;100.00;95073.03;4991944;28;20418;-64
2023/01/04 02:06:29;;;;;;;13.97;6.10;;;;;;;2.22;100.00;95081.88;4992183;28;20047;-64
2023/01/04 02:08:57;;;;;;;15.23;5.90;;;;;;;2.27;100.00;95082.44;4989572;28;20039;-64
2023/01/04 02:11:25;;;;;;;18.77;7.95;;;;;;;2.27;100.00;95076.25;4991195;28;20428;-64
2023/01/04 02:17:15;;;;;;;18.88;7.78;;;;;;;2.27;100.00;95076.25;5001856;28;20052;-64
2023/01/04 02:20:07;;;;;;;13.47;5.90;;;;;;;2.26;100.00;95078.16;5010411;28;20835;-64
2023/01/04 02:23:00;;;;;;;13.10;5.25;;;;;;;2.25;100.00;95073.06;4985140;28;20414;-64
2023/01/04 02:25:50;;;;;;;12.18;4.93;;;;;;;2.16;100.00;95075.88;4986044;28;21671;-65
2023/01/04 02:28:26;;;;;;;13.68;4.93;;;;;;;2.20;100.00;95082.22;4992080;28;20615;-65
2023/01/04 02:31:07;;;;;;;12.82;5.30;;;;;;;2.28;100.00;95083.25;4990429;28;20484;-65
2023/01/04 02:33:56;;;;;;;13.37;5.37;;;;;;;2.37;100.00;95079.34;4991719;28;20522;-65
2023/01/04 02:36:31;;;;;;;13.18;5.20;;;;;;;2.36;100.00;95076.97;5010124;28;21031;-65
2023/01/04 02:39:02;;;;;;;14.32;5.78;;;;;;;2.40;100.00;95067.81;5010453;28;20045;-64
2023/01/04 02:41:38;;;;;;;14.18;5.55;;;;;;;2.36;100.00;95066.91;5010681;28;20049;-65
2023/01/04 02:47:08;;;;;;;14.20;5.70;;;;;;;2.36;100.00;95066.91;4979234;28;20080;-64
2023/01/04 02:52:30;;;;;;;14.45;5.68;;;;;;;2.36;100.00;95058.00;4994335;28;20052;-64
2023/01/04 02:54:57;;;;;;;15.27;5.80;;;;;;;2.45;100.00;95060.59;4997692;28;20485;-65
2023/01/04 02:57:28;;;;;;;12.38;5.38;;;;;;;2.51;100.00;95057.34;4998091;28;20053;-65
2023/01/04 03:00:29;;;;;;;14.67;5.30;;;;;;;2.48;100.00;95054.53;4991132;28;20049;-64
2023/01/04 03:06:16;;;;;;;12.13;5.38;;;;;;;2.62;100.00;95056.91;5007399;28;20042;-64
2023/01/04 03:09:00;;;;;;;11.13;4.65;;;;;;;2.72;100.00;95053.78;5010442;28;20048;-65
2023/01/04 03:14:29;;;;;;;12.93;5.13;;;;;;;2.75;100.00;95044.94;4990366;28;20050;-64
2023/01/04 03:17:06;;;;;;;10.77;4.82;;;;;;;2.70;100.00;95045.19;4990092;28;20046;-64
2023/01/04 03:19:50;;;;;;;13.30;5.35;;;;;;;2.75;100.00;95036.81;5010584;28;20103;-65
2023/01/04 03:36:44;;;;;;;11.73;4.95;;;;;;;3.00;100.00;95022.16;4988254;28;21601;-64
2023/01/04 03:48:40;;;;;;;11.50;4.32;;;;;;;3.00;100.00;95000.47;4991552;28;20065;-64
2023/01/04 03:51:22;;;;;;;11.52;4.53;;;;;;;3.00;100.00;94996.97;5010028;28;20084;-64
2023/01/04 03:54:03;;;;;;;10.82;4.47;;;;;;;3.03;100.00;94992.78;5010221;28;20046;-64
2023/01/04 03:56:32;;;;;;;11.57;4.90;;;;;;;2.94;100.00;94990.97;5009296;28;20807;-64
2023/01/04 03:58:59;;;;;;;12.40;4.75;;;;;;;2.98;100.00;95000.00;4992318;28;20048;-64
2023/01/04 04:01:27;;;;;;;11.93;4.80;;;;;;;2.96;100.00;95001.47;4989747;28;20038;-64
2023/01/04 04:09:25;;;;;;;11.43;4.30;;;;;;;2.97;100.00;95003.84;5002546;28;20065;-64
2023/01/04 04:11:51;;;;;;;10.77;4.10;;;;;;;2.95;100.00;94994.47;4972548;28;20042;-63
2023/01/04 04:14:18;;;;;;;9.45;4.07;;;;;;;2.97;100.00;94986.78;4990641;28;20053;-64
2023/01/04 04:16:45;;;;;;;10.85;3.97;;;;;;;2.99;100.00;94993.44;4990219;28;20057;-63
2023/01/04 04:19:12;;;;;;;11.30;4.57;;;;;;;2.99;100.00;94992.66;5005244;28;20046;-64
2023/01/04 04:21:38;;;;;;;9.43;4.50;;;;;;;3.03;100.00;94998.97;4984294;28;20419;-64
2023/01/04 04:24:05;;;;;;;11.85;4.68;;;;;;;3.05;100.00;94990.50;5013072;28;20050;-63
2023/01/04 04:26:32;;;;;;;11.15;4.80;;;;;;;3.05;100.00;94995.94;5013468;28;20075;-64
2023/01/04 04:28:59;;;;;;;10.30;4.47;;;;;;;3.06;100.00;94990.16;5013163;28;20042;-64
2023/01/04 04:31:25;;;;;;;12.55;4.90;;;;;;;3.09;100.00;94994.91;5008070;28;20040;-64
2023/01/04 04:33:52;;;;;;;12.00;4.80;;;;;;;3.05;100.00;94980.44;4993414;28;20426;-64
2023/01/04 04:36:19;;;;;;;12.13;5.18;;;;;;;2.94;100.00;94982.06;4987630;28;20052;-64
2023/01/04 04:38:45;;;;;;;14.00;6.30;;;;;;;2.97;100.00;94978.66;4993577;28;20038;-64
2023/01/04 04:43:58;;;;;;;11.50;5.07;;;;;;;2.85;100.00;94965.09;5008029;28;20052;-65
2023/01/04 04:46:25;;;;;;;11.77;4.67;;;;;;;2.83;100.00;94960.00;5011585;28;20041;-65
2023/01/04 04:48:52;;;;;;;12.38;5.03;;;;;;;2.80;100.00;94969.63;5004473;28;20107;-64
2023/01/04 04:51:19;;;;;;;11.75;5.20;;;;;;;2.82;100.00;94973.91;4993635;28;20046;-64
2023/01/04 04:53:45;;;;;;;14.82;4.60;;;;;;;2.88;100.00;94970.63;4993271;28;20045;-64
2023/01/04 04:56:12;;;;;;;10.95;4.70;;;;;;;2.93;100.00;94973.09;4993206;28;20097;-64
2023/01/04 04:58:39;;;;;;;11.37;4.10;;;;;;;2.95;100.00;94970.84;4986782;28;20050;-64
2023/01/04 05:01:06;;;;;;;10.70;4.00;;;;;;;2.97;100.00;94970.50;5010301;28;20042;-64
2023/01/04 05:03:33;;;;;;;10.32;4.38;;;;;;;2.94;100.00;94982.84;4993049;28;20742;-64
2023/01/04 05:06:01;;;;;;;9.85;3.88;;;;;;;2.97;100.00;94973.22;4992815;28;20408;-64
2023/01/04 05:08:27;;;;;;;10.07;4.13;;;;;;;2.95;100.00;94970.84;4985319;28;20046;-64
2023/01/04 05:10:54;;;;;;;11.77;4.03;;;;;;;2.89;100.00;94974.13;5012490;28;20453;-64
2023/01/04 05:13:21;;;;;;;9.32;3.80;;;;;;;2.90;100.00;94970.31;5012953;28;20052;-64
2023/01/04 05:15:51;;;;;;;9.40;3.80;;;;;;;2.90;100.00;94964.88;4996491;28;20609;-64
2023/01/04 05:18:20;;;;;;;9.68;3.92;;;;;;;2.89;100.00;94958.66;4992063;28;21620;-64
2023/01/04 05:20:47;;;;;;;9.40;3.95;;;;;;;2.83;100.00;94968.16;4985340;28;20041;-64
2023/01/04 05:23:15;;;;;;;9.63;3.87;;;;;;;2.89;100.00;94972.22;4989869;28;20454;-64
2023/01/04 05:25:42;;;;;;;8.98;4.28;;;;;;;2.91;100.00;94969.94;5005122;28;20445;-64
2023/01/04 05:28:09;;;;;;;9.25;4.05;;;;;;;2.91;100.00;94964.53;5011762;28;20041;-64
2023/01/04 05:30:55;;;;;;;12.52;4.43;;;;;;;2.91;100.00;94971.88;5005699;28;20111;-64
2023/01/04 05:33:23;;;;;;;11.20;5.22;;;;;;;2.95;100.00;94967.34;4997325;28;20644;-64
2023/01/04 05:35:51;;;;;;;11.17;5.53;;;;;;;2.94;100.00;94965.78;4992071;28;20046;-64
2023/01/04 05:38:18;;;;;;;13.25;5.60;;;;;;;2.92;100.00;94970.75;4997548;28;20923;-64
2023/01/04 05:40:47;;;;;;;12.02;5.15;;;;;;;2.97;100.00;94970.50;4992172;28;20054;-64
2023/01/04 05:43:15;;;;;;;10.50;4.80;;;;;;;2.99;100.00;94965.53;4987836;28;20434;-64
2023/01/04 05:45:43;;;;;;;12.18;5.03;;;;;;;3.00;100.00;94969.84;5011772;28;20050;-64
2023/01/04 05:48:10;;;;;;;13.90;5.20;;;;;;;3.09;100.00;94975.13;5011292;28;20517;-64
2023/01/04 05:50:37;;;;;;;11.82;5.22;;;;;;;3.13;100.00;94965.19;4996177;28;20038;-64
2023/01/04 05:53:05;;;;;;;11.90;4.93;;;;;;;3.13;100.00;94960.53;4990700;28;20112;-64
2023/01/04 05:55:32;;;;;;;11.80;4.70;;;;;;;3.12;100.00;94958.97;4992181;28;20404;-64
2023/01/04 05:57:59;;;;;;;11.88;5.28;;;;;;;3.14;100.00;94961.31;4990574;28;20389;-64
2023/01/04 06:00:26;;;;;;;12.77;5.37;;;;;;;3.22;100.00;94960.44;4992139;28;20092;-64
2023/01/04 06:02:54;;;;;;;13.07;5.70;;;;;;;3.20;100.00;94968.91;4989945;28;20054;-64
2023/01/04 06:05:21;;;;;;;13.68;5.88;;;;;;;3.27;100.00;94970.25;4992614;28;20057;-64
2023/01/04 06:07:48;;;;;;;11.55;4.93;;;;;;;3.21;100.00;94956.13;4984996;28;20049;-64
2023/01/04 06:10:15;;;;;;;11.05;5.20;;;;;;;3.27;100.00;94964.81;5005705;28;20087;-64
2023/01/04 06:12:42;;;;;;;11.23;4.60;;;;;;;3.22;100.00;94965.84;5011515;28;20147;-64
2023/01/04 06:15:10;;;;;;;10.20;4.60;;;;;;;3.23;100.00;94963.91;5011164;28;20487;-64
2023/01/04 06:17:37;;;;;;;10.55;4.55;;;;;;;3.24;100.00;94962.78;5011074;28;20041;-64
2023/01/04 06:20:08;;;;;;;10.75;4.38;;;;;;;3.23;100.00;94967.41;5010617;28;20058;-64
2023/01/04 06:22:35;;;;;;;8.63;4.00;;;;;;;3.27;100.00;94962.88;5011262;28;20052;-64
2023/01/04 06:25:03;;;;;;;9.90;4.50;;;;;;;3.28;100.00;94961.75;5026221;28;20046;-64
2023/01/04 06:27:30;;;;;;;9.98;4.28;;;;;;;3.25;100.00;94962.44;5011075;28;20046;-64
2023/01/04 06:29:56;;;;;;;9.48;4.20;;;;;;;3.31;100.00;94963.00;5011231;28;20072;-64
2023/01/04 06:32:23;;;;;;;8.95;4.10;;;;;;;3.31;100.00;94963.00;5010958;28;20398;-64
2023/01/04 06:34:50;;;;;;;9.95;4.95;;;;;;;3.34;100.00;94962.28;5011063;28;20456;-64
2023/01/04 06:37:16;;;;;;;9.00;3.80;;;;;;;3.30;100.00;94969.53;5010671;28;20755;-65
2023/01/04 06:39:43;;;;;;;7.93;3.85;;;;;;;3.36;100.00;94968.97;4995691;28;20043;-63
2023/01/04 06:42:43;;;;;;;9.82;4.22;;;;;;;3.31;100.00;94974.63;4985170;28;20411;-64
2023/01/04 06:44:56;;;;;;;10.35;4.20;;;;;;;3.34;100.00;94976.66;4990737;28;20412;-64
2023/01/04 06:47:23;;;;;;;10.32;4.65;;;;;;;3.35;100.00;94963.88;4991596;28;20038;-64
2023/01/04 06:49:50;;;;;;;9.13;4.33;;;;;;;3.32;100.00;94962.66;4991350;28;20046;-64
2023/01/04 06:52:17;;;;;;;8.90;4.10;;;;;;;3.32;100.00;94973.50;4983531;28;20257;-63
2023/01/04 06:54:43;;;;;;;9.18;3.90;;;;;;;3.36;100.00;94965.44;4998609;28;20066;-64
2023/01/04 06:57:11;;;;;;;9.30;3.80;;;;;;;3.44;100.00;94963.75;4985384;28;20121;-64
2023/01/04 06:59:37;;;;;;;10.35;4.35;;;;;;;3.42;100.00;94971.44;5006282;28;20495;-65
2023/01/04 07:02:04;;;;;;;9.10;4.30;;;;;;;3.42;100.00;94974.97;5025301;28;20045;-64
2023/01/04 07:04:31;;;;;;;10.15;4.68;;;;;;;3.49;100.00;94985.22;5010382;28;20042;-64
2023/01/04 07:06:58;;;;;;;10.73;4.18;;;;;;;3.54;100.00;94983.06;5010077;28;20045;-64
2023/01/04 07:09:24;;;;;;;9.98;4.50;;;;;;;3.54;100.00;94976.81;5009332;28;20077;-64
2023/01/04 07:11:51;;;;;;;11.05;4.65;;;;;;;3.49;100.00;94980.56;4993819;28;20054;-64
2023/01/04 07:14:18;;;;;;;10.00;4.73;;;;;;;3.54;100.00;94982.25;4990657;28;20046;-65
2023/01/04 07:16:44;;;;;;;23.30;10.73;;;;;;;3.48;100.00;94983.63;4985671;28;20072;-64
2023/01/04 07:19:11;;;;;;;25.05;12.98;;;;;;;3.68;100.00;94985.41;5010004;28;20054;-64
2023/01/04 07:21:38;;;;;;;23.23;11.77;;;;;;;3.49;100.00;94983.28;5010269;28;20457;-64
2023/01/04 07:24:04;;;;;;;12.82;7.18;;;;;;;3.57;100.00;94987.00;5003852;28;20111;-64
2023/01/04 07:26:32;;;;;;;11.20;5.27;;;;;;;3.54;100.00;94977.63;4985036;28;20042;-64
2023/01/04 07:29:14;;;;;;;10.13;5.03;;;;;;;3.62;100.00;94992.16;5005951;28;20054;-65
2023/01/04 07:31:49;;;;;;;10.05;4.10;;;;;;;3.65;100.00;94988.78;4995242;28;20050;-64
2023/01/04 07:34:19;;;;;;;9.32;3.95;;;;;;;3.67;100.00;94991.16;4988242;28;21680;-64
2023/01/04 07:36:47;;;;;;;8.30;3.88;;;;;;;3.67;100.00;94989.22;5010326;28;20457;-64
2023/01/04 07:39:15;;;;;;;9.60;4.10;;;;;;;3.63;100.00;94987.56;5009687;28;20046;-64
2023/01/04 07:41:43;;;;;;;9.98;4.28;;;;;;;3.70;100.00;94987.75;5009929;28;20076;-65
2023/01/04 07:44:10;;;;;;;9.43;4.53;;;;;;;3.71;100.00;94989.34;5009419;28;20110;-64
2023/01/04 07:46:37;;;;;;;8.82;4.57;;;;;;;3.82;100.00;94981.47;5009876;28;20045;-65
2023/01/04 07:49:05;;;;;;;9.35;4.25;;;;;;;3.81;100.00;94975.25;5009703;28;20064;-64
2023/01/04 07:51:40;;;;;;;9.13;3.90;;;;;;;3.75;100.00;94985.56;5010086;28;20040;-64
2023/01/04 07:54:09;;;;;;;9.50;4.05;;;;;;;3.88;100.00;94988.22;5009466;28;20513;-64
2023/01/04 07:56:36;;;;;;;9.65;4.30;;;;;;;3.92;100.00;94989.91;5010539;28;20462;-65
2023/01/04 07:59:07;;;;;;;10.60;3.67;;;;;;;3.92;100.00;94992.63;5013884;28;20049;-64
2023/01/04 08:01:36;;;;;;;9.20;4.47;;;;;;;4.09;100.00;94986.09;5013368;28;20042;-64
2023/01/04 08:04:05;;;;;;;8.77;4.23;;;;;;;4.23;100.00;94991.13;5013698;28;20073;-65
2023/01/04 08:06:32;;;;;;;11.07;5.10;;;;;;;4.27;100.00;94983.88;5014090;28;20045;-64
2023/01/04 08:08:59;;;;;;;9.40;4.47;;;;;;;4.19;100.00;94990.25;4994061;28;20034;-64
2023/01/04 08:11:26;;;;;;;10.60;4.63;;;;;;;4.29;100.00;94984.31;4993685;28;20042;-65
2023/01/04 08:13:53;;;;;;;9.68;4.68;;;;;;;4.25;100.00;94978.00;4993642;28;20058;-64
2023/01/04 08:16:31;;;;;;;7.63;4.10;;;;;;;4.30;100.00;94983.16;4994337;28;20042;-65
2023/01/04 08:19:01;;;;;;;6.82;3.20;;;;;;;4.27;100.00;94983.88;4993548;28;20046;-64
2023/01/04 08:21:29;;;;;;;8.65;3.83;;;;;;;4.42;100.00;94990.44;4992399;28;20389;-65
2023/01/04 08:23:56;;;;;;;17.25;6.93;;;;;;;4.35;100.00;94974.75;4993313;28;20403;-65
2023/01/04 08:26:23;;;;;;;8.32;4.10;;;;;;;4.39;100.00;94972.13;4988324;28;20050;-64
2023/01/04 08:28:50;;;;;;;8.20;3.70;;;;;;;4.27;100.00;94973.00;4993879;28;20406;-64
2023/01/04 08:31:20;;;;;;;8.15;3.78;;;;;;;4.29;100.00;94973.44;4979803;28;21707;-64
2023/01/04 08:33:49;;;;;;;7.35;3.40;;;;;;;4.31;100.00;94962.22;4993798;28;20397;-64
2023/01/04 08:36:23;;;;;;;7.50;3.60;;;;;;;4.28;100.00;94965.63;4993041;28;20038;-64
2023/01/04 08:38:58;;;;;;;6.18;3.15;;;;;;;4.22;100.00;94964.31;4991381;28;20038;-64
2023/01/04 08:41:28;;;;;;;8.13;3.80;;;;;;;4.30;100.00;94958.69;4991986;28;20050;-64
2023/01/04 08:44:23;;;;;;;6.60;3.13;;;;;;;4.27;100.00;94959.41;4992859;28;20046;-64
2023/01/04 08:46:51;;;;;;;5.75;3.15;;;;;;;4.18;100.00;94962.28;4993528;28;20415;-64
2023/01/04 08:49:19;;;;;;;6.80;3.03;;;;;;;4.37;100.00;94961.59;4991505;28;20620;-64
2023/01/04 08:51:47;;;;;;;5.68;2.63;;;;;;;4.32;100.00;94959.13;4982065;28;20085;-64
2023/01/04 08:54:14;;;;;;;7.07;3.10;;;;;;;4.41;100.00;94958.97;4991222;28;20046;-64
2023/01/04 08:56:41;;;;;;;5.20;2.60;;;;;;;4.42;100.00;94957.03;4980236;28;20062;-64
2023/01/04 08:59:10;;;;;;;5.63;2.85;;;;;;;4.45;100.00;94953.59;4991313;28;20338;-64
2023/01/04 09:01:37;;;;;;;5.65;2.70;;;;;;;4.35;100.00;94949.50;4992154;28;20455;-64
2023/01/04 09:04:05;;;;;;;6.57;3.03;;;;;;;4.51;100.00;94957.66;4992140;28;20443;-63
2023/01/04 09:06:32;;;;;;;6.27;2.50;;;;;;;4.51;100.00;94949.50;4991704;28;20046;-64
2023/01/04 09:08:59;;;;;;;6.28;2.90;;;;;;;4.58;100.00;94953.16;5010519;28;20499;-64
2023/01/04 09:11:26;;;;;;;6.43;2.80;;;;;;;4.48;100.00;94953.69;5012212;28;20442;-64
2023/01/04 09:13:57;;;;;;;5.43;2.55;;;;;;;4.50;100.00;94954.13;5002952;28;20051;-65
2023/01/04 09:16:35;;;;;;;5.13;2.63;;;;;;;4.50;100.00;94948.72;4992732;28;20186;-64
2023/01/04 09:19:02;;;;;;;6.83;2.50;;;;;;;4.63;100.00;94945.88;4992687;28;20157;-65
2023/01/04 09:21:29;;;;;;;5.43;2.60;;;;;;;4.61;100.00;94946.25;4992616;28;20050;-65
2023/01/04 09:23:57;;;;;;;8.13;3.45;;;;;;;4.45;100.00;94948.97;4987878;28;20073;-65
2023/01/04 09:26:24;;;;;;;7.10;2.83;;;;;;;4.55;100.00;94953.09;5010965;28;20042;-65
2023/01/04 09:28:52;;;;;;;6.38;2.78;;;;;;;4.59;100.00;94953.97;5011678;28;20052;-62
2023/01/04 09:31:25;;;;;;;6.93;3.13;;;;;;;4.50;100.00;94965.00;5012367;28;20517;-65
2023/01/04 09:33:54;;;;;;;6.57;2.85;;;;;;;4.44;100.00;94955.53;5007128;28;20054;-65
2023/01/04 09:36:40;;;;;;;6.50;3.45;;;;;;;4.37;100.00;94953.44;4988158;28;20107;-65
2023/01/04 09:39:07;;;;;;;6.05;2.70;;;;;;;4.48;100.00;94955.63;4980958;28;20407;-66
2023/01/04 09:41:57;;;;;;;7.35;3.80;;;;;;;4.50;100.00;94945.22;4990473;28;20072;-65
2023/01/04 09:44:30;;;;;;;7.57;3.47;;;;;;;4.65;100.00;94947.13;4990508;28;20694;-65
2023/01/04 09:47:39;;;;;;;7.03;3.00;;;;;;;4.49;100.00;94947.13;4979751;28;20050;-65
2023/01/04 09:50:15;;;;;;;5.90;3.00;;;;;;;4.48;100.00;94931.97;4990489;28;20085;-64
2023/01/04 09:52:55;;;;;;;6.50;2.92;;;;;;;4.53;100.00;94928.22;4994842;28;20054;-65
2023/01/04 09:55:26;;;;;;;6.55;3.25;;;;;;;4.44;100.00;94927.59;4994380;28;20805;-65
2023/01/04 09:58:22;;;;;;;6.43;3.00;;;;;;;4.51;100.00;94914.19;4991015;28;20046;-65
2023/01/04 10:01:00;;;;;;;8.40;3.60;;;;;;;4.47;100.00;94910.59;4988287;28;20052;-64
2023/01/04 10:03:32;;;;;;;7.80;3.40;;;;;;;4.59;100.00;94924.84;4996776;28;20403;-64
2023/01/04 10:06:00;;;;;;;5.53;2.80;;;;;;;4.50;100.00;94912.59;4989437;28;20054;-65
2023/01/04 10:08:30;;;;;;;6.25;3.08;;;;;;;4.56;100.00;94925.56;4992090;28;20044;-65
2023/01/04 10:11:29;;;;;;;6.40;2.90;;;;;;;4.55;100.00;94929.44;4984753;28;20055;-65
2023/01/04 10:14:14;;;;;;;6.65;3.10;;;;;;;4.56;100.00;94924.78;5010723;28;20050;-65
2023/01/04 10:16:59;;;;;;;6.13;3.20;;;;;;;4.59;100.00;94913.22;5007079;28;20054;-64
2023/01/04 10:19:44;;;;;;;7.50;3.58;;;;;;;4.68;100.00;94910.28;5010062;28;20833;-65
2023/01/04 10:23:09;;;;;;;7.07;3.30;;;;;;;4.72;100.00;94913.88;5009202;28;20336;-65
2023/01/04 10:26:00;;;;;;;5.57;2.53;;;;;;;4.74;100.00;94911.59;5002272;28;20666;-65
2023/01/04 10:28:55;;;;;;;6.38;2.70;;;;;;;4.76;100.00;94907.38;5010758;28;20115;-65
2023/01/04 10:31:40;;;;;;;5.30;2.50;;;;;;;4.83;100.00;94912.19;4999687;28;20403;-65
2023/01/04 10:34:24;;;;;;;8.18;3.70;;;;;;;4.99;100.00;94910.22;5010851;28;20050;-65
2023/01/04 10:37:09;;;;;;;7.32;3.60;;;;;;;5.03;100.00;94907.59;4998593;28;20065;-66
2023/01/04 10:39:36;;;;;;;6.70;2.50;;;;;;;5.16;100.00;94902.81;4999737;28;20050;-65
2023/01/04 10:42:13;;;;;;;5.97;2.55;;;;;;;5.27;100.00;94897.56;5010296;28;20100;-65
2023/01/04 10:45:03;;;;;;;6.88;3.25;;;;;;;5.25;99.37;94892.50;4995840;28;20050;-65
2023/01/04 10:48:17;;;;;;;6.40;1.83;;;;;;;5.37;96.36;94899.72;4990070;28;20348;-64
2023/01/04 10:50:55;;;;;;;3.25;1.60;;;;;;;5.46;94.72;94892.16;4992586;28;20636;-64
2023/01/04 10:53:36;;;;;;;4.80;1.60;;;;;;;5.57;92.41;94878.72;5009940;28;20852;-65
2023/01/04 10:56:14;;;;;;;3.55;1.33;;;;;;;5.59;92.98;94871.81;5010030;28;20116;-64
2023/01/04 10:59:09;;;;;;;3.70;1.50;;;;;;;5.66;93.78;94878.53;5010066;28;20050;-65
2023/01/04 11:01:50;;;;;;;2.80;1.20;;;;;;;5.68;92.13;94874.28;5010263;28;20030;-65
2023/01/04 11:04:17;;;;;;;3.72;1.60;;;;;;;5.78;93.05;94864.75;5010047;28;20905;-65
2023/01/04 11:06:50;;;;;;;3.50;1.70;;;;;;;5.68;92.54;94854.44;5010759;28;20107;-64
2023/01/04 11:09:23;;;;;;;4.43;2.10;;;;;;;5.65;93.95;94860.59;5010340;28;20487;-65
2023/01/04 11:11:56;;;;;;;4.22;1.75;;;;;;;5.85;94.21;94851.22;5009874;28;20095;-63
2023/01/04 11:14:24;;;;;;;4.55;1.50;;;;;;;5.83;93.39;94842.63;5010849;28;20099;-65
2023/01/04 11:16:57;;;;;;;3.83;2.10;;;;;;;5.71;94.78;94840.88;5008730;28;20054;-64
2023/01/04 11:19:26;;;;;;;4.30;2.30;;;;;;;5.75;95.38;94844.44;5010749;28;20403;-64
2023/01/04 11:22:04;;;;;;;5.40;2.30;;;;;;;5.74;95.44;94836.66;5009497;28;20054;-65
2023/01/04 11:24:33;;;;;;;5.57;2.60;;;;;;;5.64;97.23;94848.94;5010424;28;20049;-65
2023/01/04 11:27:13;;;;;;;5.40;2.25;;;;;;;5.62;97.82;94837.59;5009705;28;20038;-65
2023/01/04 11:30:03;;;;;;;4.90;2.30;;;;;;;5.67;98.37;94837.28;5025522;28;20056;-65
2023/01/04 11:32:51;;;;;;;6.30;2.50;;;;;;;5.56;99.29;94837.09;5008995;28;21729;-65
2023/01/04 11:35:45;;;;;;;4.50;2.13;;;;;;;5.39;100.00;94835.63;5009398;28;21688;-64
2023/01/04 11:38:13;;;;;;;5.88;2.70;;;;;;;5.60;99.76;94827.06;5009983;28;20049;-64
2023/01/04 11:40:40;;;;;;;6.07;2.40;;;;;;;5.58;99.61;94826.66;5010385;28;20046;-64
2023/01/04 11:43:19;;;;;;;6.22;2.90;;;;;;;5.65;99.45;94825.19;5009450;28;20088;-65
2023/01/04 11:45:52;;;;;;;6.77;2.77;;;;;;;5.56;100.00;94826.22;4983517;28;20050;-64
2023/01/04 11:48:30;;;;;;;5.93;2.80;;;;;;;5.53;100.00;94829.69;4988603;28;20043;-64
2023/01/04 11:50:57;;;;;;;5.20;2.42;;;;;;;5.59;100.00;94836.41;5009500;28;20050;-64
2023/01/04 11:53:28;;;;;;;7.97;2.85;;;;;;;5.52;100.00;94828.09;5010199;28;20453;-64
2023/01/04 11:56:19;;;;;;;6.10;2.88;;;;;;;5.38;100.00;94823.16;5008302;28;20069;-65
2023/01/04 11:59:11;;;;;;;8.57;3.90;;;;;;;5.34;100.00;94821.53;4993996;28;20419;-65
2023/01/04 12:01:46;;;;;;;6.22;3.38;;;;;;;5.37;100.00;94816.16;4989232;28;20120;-65
2023/01/04 12:04:19;;;;;;;7.75;3.28;;;;;;;5.26;100.00;94819.81;4987622;28;20383;-64
2023/01/04 12:06:56;;;;;;;28.65;13.93;;;;;;;5.16;100.00;94810.28;4992452;28;20052;-65
2023/01/04 12:09:23;;;;;;;9.77;5.00;;;;;;;5.21;100.00;94809.97;4986736;28;20390;-65
2023/01/04 12:11:56;;;;;;;11.27;6.23;;;;;;;5.27;100.00;94813.22;4989679;28;20458;-64
2023/01/04 12:14:31;;;;;;;16.05;8.48;;;;;;;5.26;100.00;94812.44;4988688;28;20373;-65
2023/01/04 12:17:25;;;;;;;14.30;6.97;;;;;;;5.28;100.00;94801.97;4987273;28;20046;-65
2023/01/04 12:19:55;;;;;;;15.82;7.70;;;;;;;5.29;100.00;94805.47;4982787;28;20047;-64
2023/01/04 12:22:40;;;;;;;12.25;6.97;;;;;;;5.34;100.00;94797.03;4989701;28;20047;-65
2023/01/04 12:25:24;;;;;;;25.33;14.00;;;;;;;5.45;100.00;94802.66;4988719;28;20060;-65
2023/01/04 12:27:54;;;;;;;23.50;12.45;;;;;;;5.40;100.00;94793.63;4990146;28;20116;-64
2023/01/04 12:30:45;;;;;;;27.05;13.00;;;;;;;5.42;100.00;94792.50;5008557;28;20058;-65
2023/01/04 12:33:30;;;;;;;41.45;18.10;;;;;;;5.45;100.00;94781.66;5009087;28;20064;-65
2023/01/04 12:36:03;;;;;;;7.25;3.20;;;;;;;5.45;100.00;94784.38;5009069;28;20410;-65
2023/01/04 12:38:55;;;;;;;25.30;12.73;;;;;;;5.48;100.00;94796.50;5009902;28;20048;-65